Time;durP1;ratioP1;P1;durP2;ratioP2;P2;SDS_P1;SDS_P2;PMS_P1;PMS_P2;Temp;Humidity;BMP_temperature;BMP_pressure;BME280_temperature;BME280_humidity;BME280_pressure;Samples;Min_cycle;Max_cycle;Signal;HPM_P1;HPM_P2
2023/08/26 00:00:19;;;;;;;10.33;7.70;;;26.30;77.20;;;;;;5015348;28;20257;-47
2023/08/26 00:02:45;;;;;;;7.20;6.50;;;26.30;76.80;;;;;;5015146;28;20194;-46
2023/08/26 00:05:10;;;;;;;10.63;7.60;;;26.30;76.80;;;;;;5015321;28;20607;-45
2023/08/26 00:07:36;;;;;;;6.97;6.37;;;26.40;76.60;;;;;;5014932;28;20628;-45
2023/08/26 00:10:02;;;;;;;8.33;7.50;;;26.30;76.40;;;;;;5015393;28;20201;-45
2023/08/26 00:12:27;;;;;;;13.80;8.03;;;26.30;76.20;;;;;;5014899;28;20205;-47
2023/08/26 00:14:53;;;;;;;9.00;8.13;;;26.00;78.10;;;;;;5015418;28;20665;-47
2023/08/26 00:17:19;;;;;;;9.17;8.30;;;26.00;78.90;;;;;;5019189;28;20212;-46
2023/08/26 00:19:44;;;;;;;8.63;6.87;;;26.00;79.70;;;;;;5013512;28;20296;-46
2023/08/26 00:22:10;;;;;;;7.40;6.80;;;26.00;79.10;;;;;;5014882;28;20208;-46
2023/08/26 00:24:36;;;;;;;7.50;6.80;;;26.00;78.40;;;;;;5015166;28;20182;-45
2023/08/26 00:27:02;;;;;;;7.30;6.60;;;26.00;77.30;;;;;;5014175;28;20842;-47
2023/08/26 00:29:28;;;;;;;6.87;6.27;;;26.00;76.70;;;;;;5014967;28;20196;-46
2023/08/26 00:31:54;;;;;;;8.43;7.67;;;26.10;76.10;;;;;;5014566;28;20512;-46
2023/08/26 00:34:19;;;;;;;6.60;6.00;;;26.10;75.80;;;;;;5009074;28;20201;-46
2023/08/26 00:36:45;;;;;;;7.30;6.63;;;26.10;75.50;;;;;;5014469;28;20198;-46
2023/08/26 00:39:10;;;;;;;6.47;5.87;;;26.20;75.30;;;;;;5014766;28;20186;-45
2023/08/26 00:41:36;;;;;;;8.37;7.10;;;26.20;75.00;;;;;;5013991;28;20233;-45
2023/08/26 00:44:02;;;;;;;7.17;6.67;;;26.10;74.50;;;;;;5014844;28;20216;-46
2023/08/26 00:46:29;;;;;;;6.60;6.00;;;26.10;74.50;;;;;;5012640;28;20604;-45
2023/08/26 00:48:54;;;;;;;7.07;6.37;;;25.90;74.70;;;;;;5014424;28;20429;-46
2023/08/26 00:51:21;;;;;;;7.20;6.47;;;25.80;74.80;;;;;;5014035;28;20439;-46
2023/08/26 00:53:48;;;;;;;7.60;6.50;;;25.80;74.30;;;;;;5014835;28;20201;-46
2023/08/26 00:56:14;;;;;;;8.03;6.50;;;25.70;75.00;;;;;;5014190;28;20918;-46
2023/08/26 00:58:40;;;;;;;11.03;6.40;;;25.60;75.10;;;;;;5014236;28;20512;-47
2023/08/26 01:01:05;;;;;;;7.13;6.50;;;25.70;75.20;;;;;;5013897;28;20261;-46
2023/08/26 01:03:32;;;;;;;6.67;6.07;;;25.80;74.80;;;;;;5014320;28;20479;-45
2023/08/26 01:05:57;;;;;;;9.50;6.00;;;25.90;74.80;;;;;;5014276;28;20193;-46
2023/08/26 01:08:23;;;;;;;6.60;6.00;;;25.90;74.60;;;;;;5013406;28;20548;-47
2023/08/26 01:11:11;;;;;;;6.00;5.50;;;26.00;74.40;;;;;;5013382;28;20194;-46
2023/08/26 01:13:57;;;;;;;6.50;6.00;;;26.00;74.10;;;;;;5014170;28;20192;-46
2023/08/26 01:16:23;;;;;;;6.93;6.27;;;26.00;74.60;;;;;;4986315;28;20439;-47
2023/08/26 01:18:50;;;;;;;8.23;6.80;;;25.80;75.00;;;;;;5013983;28;20421;-47
2023/08/26 01:21:18;;;;;;;6.40;5.77;;;25.50;76.20;;;;;;5013351;28;20484;-47
2023/08/26 01:23:44;;;;;;;6.43;5.83;;;25.20;78.20;;;;;;5014097;28;20523;-48
2023/08/26 01:26:10;;;;;;;9.87;6.97;;;25.00;79.20;;;;;;5013458;28;20464;-46
2023/08/26 01:28:36;;;;;;;6.90;6.07;;;25.00;79.20;;;;;;5013814;28;20483;-47
2023/08/26 01:31:08;;;;;;;8.90;6.57;;;25.10;79.10;;;;;;5013319;28;20209;-49
2023/08/26 01:33:39;;;;;;;6.63;5.80;;;25.30;79.60;;;;;;5013036;28;20440;-46
2023/08/26 01:36:10;;;;;;;9.30;6.00;;;25.40;78.40;;;;;;5013217;28;20421;-47
2023/08/26 01:38:38;;;;;;;5.80;4.57;;;25.10;79.90;;;;;;5011523;28;20440;-46
2023/08/26 01:41:05;;;;;;;5.93;4.27;;;25.00;80.00;;;;;;5012932;28;20968;-49
2023/08/26 01:43:33;;;;;;;5.83;4.97;;;24.90;80.40;;;;;;5013788;28;20802;-47
2023/08/26 01:45:58;;;;;;;9.57;4.50;;;24.60;81.80;;;;;;5013706;28;20439;-48
2023/08/26 01:48:24;;;;;;;8.43;4.70;;;24.50;83.20;;;;;;5012761;28;20469;-47
2023/08/26 01:50:49;;;;;;;6.97;5.07;;;24.50;84.10;;;;;;5013126;28;20193;-47
2023/08/26 01:53:15;;;;;;;6.03;4.13;;;24.50;83.70;;;;;;5013078;28;20189;-48
2023/08/26 01:55:41;;;;;;;5.33;4.87;;;24.60;83.30;;;;;;5013503;28;20541;-46
2023/08/26 01:58:06;;;;;;;5.50;5.00;;;24.70;82.00;;;;;;5012809;28;20228;-47
2023/08/26 02:00:32;;;;;;;4.40;4.00;;;24.90;81.10;;;;;;5013361;28;20222;-46
2023/08/26 02:02:57;;;;;;;5.17;4.70;;;25.10;80.40;;;;;;5012713;28;20713;-46
2023/08/26 02:05:23;;;;;;;5.70;4.07;;;25.10;79.70;;;;;;5011641;28;20286;-46
2023/08/26 02:07:48;;;;;;;5.03;4.50;;;25.10;79.70;;;;;;4999092;28;20198;-46
2023/08/26 02:10:14;;;;;;;5.00;3.83;;;25.00;80.10;;;;;;5013331;28;20196;-48
2023/08/26 02:12:40;;;;;;;4.43;4.13;;;24.80;81.40;;;;;;5012615;28;20182;-45
2023/08/26 02:15:06;;;;;;;4.87;4.00;;;24.80;81.90;;;;;;5013293;28;20213;-46
2023/08/26 02:17:32;;;;;;;3.87;3.57;;;24.90;81.90;;;;;;5022294;28;20320;-46
2023/08/26 02:19:58;;;;;;;5.33;4.80;;;24.90;81.80;;;;;;5013115;28;20960;-45
2023/08/26 02:22:23;;;;;;;5.43;3.83;;;24.90;81.60;;;;;;5012356;28;20541;-46
2023/08/26 02:24:49;;;;;;;5.00;4.03;;;24.90;81.60;;;;;;5012958;28;20575;-46
2023/08/26 02:27:14;;;;;;;4.10;3.80;;;25.00;81.20;;;;;;5012555;28;20198;-46
2023/08/26 02:29:40;;;;;;;3.90;3.50;;;25.10;80.50;;;;;;5013241;28;20241;-46
2023/08/26 02:32:06;;;;;;;4.20;3.77;;;24.90;80.20;;;;;;5010809;28;20194;-45
2023/08/26 02:34:32;;;;;;;4.57;4.17;;;24.90;81.00;;;;;;5002458;28;20276;-47
2023/08/26 02:36:57;;;;;;;4.40;4.00;;;24.90;80.80;;;;;;5012377;28;20457;-46
2023/08/26 02:39:24;;;;;;;4.77;4.23;;;25.00;80.50;;;;;;5012473;28;20220;-46
2023/08/26 02:41:49;;;;;;;4.33;3.97;;;25.00;80.30;;;;;;5012162;28;20205;-46
2023/08/26 02:44:15;;;;;;;4.60;4.20;;;25.00;80.40;;;;;;5012825;28;20409;-45
2023/08/26 02:46:41;;;;;;;4.10;3.80;;;25.00;80.40;;;;;;5012036;28;20280;-47
2023/08/26 02:49:06;;;;;;;4.90;4.40;;;25.00;80.70;;;;;;5012571;28;20201;-46
2023/08/26 02:51:32;;;;;;;6.70;4.50;;;24.90;81.30;;;;;;5012076;28;20428;-46
2023/08/26 02:53:58;;;;;;;4.83;4.43;;;25.00;80.90;;;;;;5012611;28;20599;-47
2023/08/26 02:56:23;;;;;;;5.80;5.20;;;25.00;81.20;;;;;;5011585;28;20198;-47
2023/08/26 02:58:49;;;;;;;5.10;4.60;;;24.80;81.70;;;;;;5011381;28;20197;-45
2023/08/26 03:01:16;;;;;;;8.20;4.53;;;24.80;81.90;;;;;;5011963;28;20229;-45
2023/08/26 03:03:42;;;;;;;5.57;4.33;;;24.90;81.90;;;;;;5012693;28;20185;-45
2023/08/26 03:06:07;;;;;;;4.33;3.87;;;25.00;81.40;;;;;;5011843;28;20421;-45
2023/08/26 03:08:33;;;;;;;4.63;4.10;;;25.00;80.80;;;;;;4999317;28;20186;-45
2023/08/26 03:11:03;;;;;;;4.60;4.20;;;25.00;80.20;;;;;;5012907;28;20559;-48
2023/08/26 03:13:29;;;;;;;5.20;4.13;;;25.00;80.00;;;;;;5012313;28;20190;-46
2023/08/26 03:15:56;;;;;;;3.87;3.57;;;25.10;79.70;;;;;;5013508;28;20427;-46
2023/08/26 03:18:22;;;;;;;3.90;3.60;;;25.20;79.50;;;;;;5013581;28;20421;-46
2023/08/26 03:20:48;;;;;;;4.80;4.20;;;25.20;79.00;;;;;;5012485;28;20485;-46
2023/08/26 03:23:13;;;;;;;5.30;4.60;;;25.30;78.90;;;;;;5010214;28;20194;-48
2023/08/26 03:25:40;;;;;;;3.93;3.50;;;25.30;78.60;;;;;;5012161;28;20680;-47
2023/08/26 03:28:08;;;;;;;6.23;3.77;;;25.40;78.40;;;;;;5011833;28;20186;-46
2023/08/26 03:30:34;;;;;;;3.73;3.43;;;25.40;78.10;;;;;;5012279;28;20951;-46
2023/08/26 03:33:00;;;;;;;4.00;3.60;;;25.10;78.30;;;;;;5011709;28;20440;-48
2023/08/26 03:35:26;;;;;;;4.20;3.80;;;25.10;78.70;;;;;;5008398;28;20471;-46
2023/08/26 03:37:52;;;;;;;4.97;4.33;;;25.20;78.50;;;;;;5011427;28;20460;-45
2023/08/26 03:40:19;;;;;;;5.30;4.40;;;25.30;78.10;;;;;;5012146;28;20643;-46
2023/08/26 03:42:44;;;;;;;4.67;4.27;;;25.30;77.80;;;;;;5011711;28;20220;-48
2023/08/26 03:45:10;;;;;;;3.50;3.30;;;25.30;77.30;;;;;;5012589;28;20417;-45
2023/08/26 03:47:36;;;;;;;4.13;3.83;;;25.40;77.00;;;;;;5011138;28;20276;-46
2023/08/26 03:50:02;;;;;;;4.00;3.70;;;25.40;76.60;;;;;;5010694;28;20597;-45
2023/08/26 03:52:28;;;;;;;4.13;3.83;;;25.30;76.40;;;;;;5011410;28;20198;-46
2023/08/26 03:54:53;;;;;;;4.80;4.20;;;25.20;76.30;;;;;;5012247;28;20478;-45
2023/08/26 03:57:19;;;;;;;4.03;3.63;;;25.10;76.80;;;;;;5011624;28;20200;-45
2023/08/26 03:59:45;;;;;;;4.27;3.93;;;25.10;77.00;;;;;;5011733;28;20228;-45
2023/08/26 04:02:10;;;;;;;4.30;3.90;;;25.20;76.70;;;;;;5012452;28;20194;-46
2023/08/26 04:04:36;;;;;;;5.30;3.80;;;25.20;76.40;;;;;;5015438;28;20186;-45
2023/08/26 04:07:01;;;;;;;4.13;3.80;;;25.30;76.50;;;;;;5014579;28;20197;-46
2023/08/26 04:09:27;;;;;;;3.87;3.43;;;25.30;76.30;;;;;;5015550;28;20185;-45
2023/08/26 04:11:53;;;;;;;3.50;3.07;;;25.30;76.20;;;;;;5014936;28;20296;-46
2023/08/26 04:14:18;;;;;;;5.37;4.50;;;25.20;76.10;;;;;;5015681;28;20225;-45
2023/08/26 04:16:44;;;;;;;4.20;3.90;;;25.20;76.10;;;;;;5020653;28;20185;-45
2023/08/26 04:19:09;;;;;;;4.50;3.90;;;25.30;76.20;;;;;;5017187;28;20558;-46
2023/08/26 04:21:35;;;;;;;4.87;4.40;;;25.30;76.20;;;;;;5014636;28;20283;-46
2023/08/26 04:24:00;;;;;;;4.13;3.73;;;25.30;76.30;;;;;;5015266;28;20190;-46
2023/08/26 04:26:26;;;;;;;4.33;4.00;;;25.30;76.40;;;;;;5014387;28;20194;-46
2023/08/26 04:28:52;;;;;;;8.03;4.90;;;25.30;76.40;;;;;;5014920;28;20189;-46
2023/08/26 04:31:17;;;;;;;5.57;5.10;;;25.20;76.60;;;;;;5014788;28;20285;-46
2023/08/26 04:33:43;;;;;;;4.80;4.30;;;25.20;76.80;;;;;;5010317;28;20190;-46
2023/08/26 04:36:09;;;;;;;5.40;4.90;;;25.20;76.90;;;;;;5014306;28;20200;-45
2023/08/26 04:38:35;;;;;;;6.43;5.03;;;25.30;77.10;;;;;;5014726;28;20422;-46
2023/08/26 04:41:00;;;;;;;4.97;4.57;;;25.30;77.10;;;;;;5014713;28;20221;-47
2023/08/26 04:43:26;;;;;;;5.10;4.70;;;25.30;77.20;;;;;;5012794;28;20202;-46
2023/08/26 04:45:55;;;;;;;5.53;5.00;;;25.30;77.30;;;;;;5014621;28;20194;-46
2023/08/26 04:48:21;;;;;;;4.63;4.23;;;25.30;77.30;;;;;;5013905;28;20226;-46
2023/08/26 04:50:46;;;;;;;6.53;5.07;;;25.40;77.40;;;;;;5014884;28;20424;-46
2023/08/26 04:53:12;;;;;;;4.80;4.50;;;25.30;77.40;;;;;;5013893;28;20285;-46
2023/08/26 04:55:37;;;;;;;5.50;4.80;;;25.30;77.70;;;;;;5016106;28;20201;-45
2023/08/26 04:58:03;;;;;;;7.17;4.73;;;25.30;77.70;;;;;;5013713;28;20186;-46
2023/08/26 05:00:29;;;;;;;5.63;5.00;;;25.30;77.40;;;;;;5014543;28;20236;-46
2023/08/26 05:02:54;;;;;;;5.13;4.50;;;25.30;77.00;;;;;;5013965;28;21334;-50
2023/08/26 05:05:20;;;;;;;8.17;5.33;;;25.30;76.90;;;;;;5014089;28;20190;-45
2023/08/26 05:07:45;;;;;;;6.20;4.27;;;25.30;76.70;;;;;;5014110;28;20699;-46
2023/08/26 05:10:11;;;;;;;6.50;4.37;;;25.20;75.80;;;;;;5012718;28;20202;-46
2023/08/26 05:12:36;;;;;;;4.80;4.40;;;25.20;75.10;;;;;;5013518;28;20197;-46
2023/08/26 05:15:04;;;;;;;4.57;4.17;;;25.30;74.60;;;;;;5012869;28;20542;-46
2023/08/26 05:17:29;;;;;;;4.67;4.20;;;25.30;74.90;;;;;;5015957;28;20193;-46
2023/08/26 05:19:55;;;;;;;5.17;4.20;;;25.30;74.80;;;;;;5014103;28;20831;-45
2023/08/26 05:22:21;;;;;;;5.47;4.97;;;25.30;74.80;;;;;;5013770;28;20324;-46
2023/08/26 05:24:47;;;;;;;6.10;4.77;;;25.30;74.60;;;;;;5010031;28;20215;-46
2023/08/26 05:27:14;;;;;;;4.70;4.30;;;25.30;74.70;;;;;;5013530;28;20186;-46
2023/08/26 05:29:40;;;;;;;5.00;3.93;;;25.30;74.70;;;;;;5013674;28;20790;-45
2023/08/26 05:32:06;;;;;;;6.20;4.57;;;25.30;74.70;;;;;;5013588;28;20519;-45
2023/08/26 05:34:31;;;;;;;9.23;4.97;;;25.30;74.80;;;;;;5013217;28;20547;-52
2023/08/26 05:36:57;;;;;;;6.13;4.60;;;25.30;74.80;;;;;;5011925;28;20216;-46
2023/08/26 05:39:23;;;;;;;5.77;5.00;;;25.30;74.80;;;;;;5013753;28;20198;-45
2023/08/26 05:41:48;;;;;;;6.20;4.80;;;25.40;75.10;;;;;;5013029;28;20480;-45
2023/08/26 05:44:14;;;;;;;7.43;4.73;;;25.40;75.20;;;;;;5013489;28;20252;-45
2023/08/26 05:46:40;;;;;;;4.87;4.20;;;25.40;75.30;;;;;;5012770;28;20229;-45
2023/08/26 05:49:05;;;;;;;5.70;4.90;;;25.40;75.00;;;;;;5013808;28;20240;-46
2023/08/26 05:51:31;;;;;;;4.93;4.53;;;25.20;73.30;;;;;;5013144;28;20230;-47
2023/08/26 05:53:56;;;;;;;6.30;4.50;;;25.30;73.70;;;;;;5013439;28;20198;-46
2023/08/26 05:56:22;;;;;;;5.97;4.63;;;25.30;73.80;;;;;;5012831;28;20237;-45
2023/08/26 05:58:48;;;;;;;8.40;5.03;;;25.40;74.10;;;;;;5013451;28;20194;-46
2023/08/26 06:01:13;;;;;;;4.87;4.37;;;25.40;73.80;;;;;;5011393;28;20260;-47
2023/08/26 06:03:39;;;;;;;6.30;4.40;;;25.40;73.70;;;;;;5012909;28;20198;-46
2023/08/26 06:06:05;;;;;;;5.80;4.70;;;25.50;73.60;;;;;;5007588;28;20190;-49
2023/08/26 06:08:31;;;;;;;6.67;4.57;;;25.50;73.40;;;;;;5013161;28;20611;-45
2023/08/26 06:10:57;;;;;;;15.50;5.03;;;25.60;73.60;;;;;;5013294;28;20515;-46
2023/08/26 06:13:23;;;;;;;7.10;4.63;;;25.60;73.40;;;;;;5012712;28;20665;-45
2023/08/26 06:15:58;;;;;;;7.03;5.20;;;25.70;73.20;;;;;;5013053;28;20281;-46
2023/08/26 06:18:23;;;;;;;5.97;5.10;;;25.80;73.10;;;;;;4997208;28;20189;-45
2023/08/26 06:20:50;;;;;;;5.47;5.07;;;25.80;73.00;;;;;;5010065;28;20496;-45
2023/08/26 06:23:17;;;;;;;10.07;5.90;;;25.90;72.80;;;;;;5012548;28;20194;-45
2023/08/26 06:25:52;;;;;;;6.37;5.00;;;25.90;72.20;;;;;;5008952;28;20482;-46
2023/08/26 06:28:18;;;;;;;5.30;4.80;;;25.90;71.00;;;;;;5010904;28;20440;-45
2023/08/26 06:30:43;;;;;;;6.97;4.73;;;25.80;69.80;;;;;;5012776;28;20429;-45
2023/08/26 06:33:09;;;;;;;7.47;4.90;;;25.70;68.60;;;;;;5011892;28;20217;-46
2023/08/26 06:35:35;;;;;;;8.03;4.90;;;25.70;68.20;;;;;;5012822;28;20221;-45
2023/08/26 06:38:00;;;;;;;4.83;4.23;;;25.80;67.90;;;;;;5012066;28;20198;-48
2023/08/26 06:40:26;;;;;;;4.63;4.33;;;25.70;67.80;;;;;;5012979;28;20309;-45
2023/08/26 06:42:51;;;;;;;9.40;5.47;;;25.70;68.10;;;;;;5011984;28;20720;-45
2023/08/26 06:45:17;;;;;;;8.87;5.40;;;25.70;68.50;;;;;;5012784;28;20198;-45
2023/08/26 06:47:43;;;;;;;8.90;5.63;;;25.70;68.30;;;;;;5012083;28;20245;-45
2023/08/26 06:50:08;;;;;;;4.80;4.30;;;25.70;68.70;;;;;;5012851;28;20194;-45
2023/08/26 06:52:34;;;;;;;7.33;4.30;;;25.80;69.10;;;;;;5012092;28;20274;-45
2023/08/26 06:54:59;;;;;;;11.10;4.70;;;25.80;69.00;;;;;;5010805;28;20197;-46
2023/08/26 06:57:25;;;;;;;6.43;5.23;;;25.80;68.90;;;;;;5012129;28;20252;-45
2023/08/26 06:59:51;;;;;;;8.50;5.17;;;25.80;69.10;;;;;;5012613;28;20248;-46
2023/08/26 07:02:16;;;;;;;4.83;4.33;;;25.90;69.20;;;;;;5011773;28;20202;-45
2023/08/26 07:04:44;;;;;;;8.03;4.70;;;25.90;69.20;;;;;;5012568;28;20189;-46
2023/08/26 07:07:11;;;;;;;5.30;4.80;;;25.90;69.40;;;;;;5012031;28;20197;-47
2023/08/26 07:09:37;;;;;;;5.93;5.30;;;25.90;69.30;;;;;;5012526;28;20425;-45
2023/08/26 07:12:03;;;;;;;6.80;4.77;;;26.00;69.30;;;;;;5011835;28;20924;-45
2023/08/26 07:14:29;;;;;;;5.90;5.40;;;26.00;69.30;;;;;;5012369;28;20692;-46
2023/08/26 07:16:54;;;;;;;5.60;5.10;;;26.10;69.40;;;;;;5017279;28;20421;-48
2023/08/26 07:19:20;;;;;;;5.70;5.03;;;26.10;69.10;;;;;;5012465;28;20217;-47
2023/08/26 07:21:46;;;;;;;6.53;4.60;;;26.10;69.20;;;;;;5009938;28;20589;-45
2023/08/26 07:24:12;;;;;;;5.00;4.50;;;26.10;68.90;;;;;;5012285;28;20193;-45
2023/08/26 07:26:37;;;;;;;5.57;4.40;;;26.10;68.80;;;;;;5011677;28;20194;-45
2023/08/26 07:29:03;;;;;;;9.63;4.53;;;26.10;68.60;;;;;;5012394;28;20206;-50
2023/08/26 07:31:28;;;;;;;6.07;4.97;;;26.10;68.20;;;;;;5011806;28;20190;-46
2023/08/26 07:33:55;;;;;;;12.63;4.73;;;26.10;67.50;;;;;;5009658;28;20225;-50
2023/08/26 07:36:20;;;;;;;6.10;4.90;;;26.10;67.50;;;;;;5011860;28;20615;-45
2023/08/26 07:38:47;;;;;;;7.63;5.17;;;26.10;67.50;;;;;;5016031;28;20431;-45
2023/08/26 07:41:12;;;;;;;8.67;5.30;;;26.10;69.00;;;;;;5015044;28;20268;-47
2023/08/26 07:43:38;;;;;;;5.83;5.33;;;26.10;69.90;;;;;;5016198;28;20421;-45
2023/08/26 07:46:04;;;;;;;8.50;4.83;;;26.20;70.30;;;;;;5015281;28;20638;-46
2023/08/26 07:48:30;;;;;;;6.13;5.47;;;26.30;70.00;;;;;;5014613;28;20217;-48
2023/08/26 07:50:55;;;;;;;5.80;5.10;;;26.40;70.00;;;;;;5015795;28;20425;-44
2023/08/26 07:53:21;;;;;;;5.57;5.03;;;26.50;70.60;;;;;;5015221;28;20468;-47
2023/08/26 07:55:47;;;;;;;10.77;4.90;;;26.70;69.00;;;;;;5015459;28;20229;-45
2023/08/26 07:58:12;;;;;;;5.90;4.97;;;26.90;66.30;;;;;;5015304;28;20194;-48
2023/08/26 08:00:38;;;;;;;5.33;4.60;;;26.80;66.50;;;;;;5015729;28;20233;-45
2023/08/26 08:03:03;;;;;;;6.20;4.23;;;27.10;66.00;;;;;;5015000;28;20669;-45
2023/08/26 08:05:29;;;;;;;7.93;5.97;;;27.20;64.50;;;;;;5015795;28;20194;-46
2023/08/26 08:07:55;;;;;;;7.00;4.80;;;27.20;64.40;;;;;;5015002;28;20646;-45
2023/08/26 08:10:20;;;;;;;9.00;4.90;;;27.40;65.60;;;;;;5015679;28;20189;-45
2023/08/26 08:12:46;;;;;;;11.40;5.27;;;27.50;63.70;;;;;;5014707;28;20630;-45
2023/08/26 08:15:11;;;;;;;6.90;4.63;;;27.60;60.40;;;;;;5014011;28;20213;-47
2023/08/26 08:17:37;;;;;;;5.00;4.60;;;27.70;59.80;;;;;;5026164;28;20224;-45
2023/08/26 08:20:05;;;;;;;7.77;4.23;;;27.70;58.60;;;;;;5013544;28;20244;-45
2023/08/26 08:22:39;;;;;;;5.70;4.50;;;27.70;58.60;;;;;;5012832;28;21066;-47
2023/08/26 08:25:06;;;;;;;6.00;4.60;;;27.70;58.80;;;;;;5015200;28;20448;-46
2023/08/26 08:27:32;;;;;;;5.57;4.50;;;27.70;58.90;;;;;;5014592;28;20449;-50
2023/08/26 08:29:58;;;;;;;7.20;4.80;;;27.60;58.60;;;;;;5015254;28;20421;-49
2023/08/26 08:32:24;;;;;;;6.90;4.43;;;27.40;58.70;;;;;;5014264;28;20224;-47
2023/08/26 08:34:49;;;;;;;6.00;5.13;;;27.40;58.60;;;;;;5007746;28;20441;-47
2023/08/26 08:37:15;;;;;;;8.50;4.10;;;27.40;59.10;;;;;;5014332;28;20610;-49
2023/08/26 08:39:40;;;;;;;8.13;5.30;;;27.40;59.50;;;;;;5014997;28;20213;-50
2023/08/26 08:42:09;;;;;;;6.77;4.73;;;27.40;59.90;;;;;;5003905;28;20229;-46
2023/08/26 08:44:40;;;;;;;4.90;4.50;;;27.40;60.30;;;;;;5015163;28;20218;-46
2023/08/26 08:47:06;;;;;;;6.60;4.93;;;27.30;60.10;;;;;;5014221;28;20473;-47
2023/08/26 08:49:33;;;;;;;7.00;5.07;;;27.20;60.50;;;;;;5014388;28;20487;-47
2023/08/26 08:51:59;;;;;;;4.67;4.10;;;27.20;60.90;;;;;;5012807;28;20237;-49
2023/08/26 08:54:30;;;;;;;6.97;5.43;;;27.20;61.20;;;;;;5006210;28;20449;-52
2023/08/26 08:56:56;;;;;;;4.83;4.43;;;27.10;62.50;;;;;;5012119;28;20457;-52
2023/08/26 08:59:24;;;;;;;5.60;5.00;;;27.00;62.80;;;;;;5014039;28;20416;-47
2023/08/26 09:01:54;;;;;;;5.97;5.07;;;27.10;63.30;;;;;;5014011;28;20477;-47
2023/08/26 09:04:20;;;;;;;6.60;5.07;;;26.90;63.80;;;;;;5014442;28;20433;-48
2023/08/26 09:06:45;;;;;;;6.53;5.33;;;27.00;63.00;;;;;;5008008;28;20437;-49
2023/08/26 09:09:11;;;;;;;5.40;4.90;;;27.00;62.50;;;;;;5006317;28;20273;-45
2023/08/26 09:11:38;;;;;;;11.07;5.40;;;26.90;62.20;;;;;;5010256;28;20186;-47
2023/08/26 09:14:04;;;;;;;6.77;5.30;;;27.00;62.80;;;;;;5009792;28;20202;-47
2023/08/26 09:16:41;;;;;;;5.13;4.63;;;27.00;62.80;;;;;;5014623;28;20444;-47
2023/08/26 09:19:12;;;;;;;8.37;5.80;;;27.10;61.90;;;;;;5012411;28;20939;-47
2023/08/26 09:21:44;;;;;;;5.63;4.47;;;27.10;61.30;;;;;;5007598;28;20597;-48
2023/08/26 09:24:14;;;;;;;7.20;4.47;;;27.10;61.00;;;;;;5008600;28;20536;-52
2023/08/26 09:26:56;;;;;;;5.83;5.27;;;27.20;60.90;;;;;;5013319;28;20443;-46
2023/08/26 09:29:21;;;;;;;6.87;5.37;;;27.10;60.60;;;;;;5010057;28;21018;-47
2023/08/26 09:31:48;;;;;;;4.90;4.40;;;27.10;59.80;;;;;;5007732;28;20446;-46
2023/08/26 09:34:23;;;;;;;5.47;4.97;;;27.10;60.40;;;;;;5005818;28;20198;-51
2023/08/26 09:36:49;;;;;;;5.53;5.13;;;27.20;60.90;;;;;;5009927;28;20437;-47
2023/08/26 09:39:15;;;;;;;4.07;3.23;;;27.20;60.80;;;;;;5010390;28;20440;-46
2023/08/26 09:41:45;;;;;;;5.53;3.97;;;27.20;60.80;;;;;;5007324;28;20236;-48
2023/08/26 09:44:12;;;;;;;6.37;3.93;;;27.30;61.30;;;;;;5005009;28;20543;-47
2023/08/26 09:46:42;;;;;;;6.07;5.07;;;27.60;60.70;;;;;;5011974;28;20496;-46
2023/08/26 09:49:15;;;;;;;12.80;4.37;;;27.70;59.90;;;;;;5006756;28;20800;-50
2023/08/26 09:51:49;;;;;;;4.60;4.20;;;27.90;59.40;;;;;;5007014;28;20444;-50
2023/08/26 09:54:19;;;;;;;4.63;3.93;;;28.10;59.00;;;;;;5008886;28;20456;-46
2023/08/26 09:56:46;;;;;;;7.07;3.90;;;28.20;58.50;;;;;;5008939;28;20804;-46
2023/08/26 09:59:12;;;;;;;8.27;4.10;;;28.40;58.20;;;;;;5010059;28;20980;-48
2023/08/26 10:01:39;;;;;;;4.87;4.30;;;28.50;57.90;;;;;;5010204;28;20487;-49
2023/08/26 10:04:15;;;;;;;7.70;4.30;;;28.60;57.50;;;;;;5009402;28;20498;-48
2023/08/26 10:06:43;;;;;;;5.77;3.90;;;28.70;57.20;;;;;;5004131;28;20444;-47
2023/08/26 10:09:16;;;;;;;5.47;4.63;;;28.80;57.30;;;;;;5009684;28;20448;-48
2023/08/26 10:11:46;;;;;;;8.83;4.10;;;28.90;57.20;;;;;;5005354;28;20487;-47
2023/08/26 10:14:14;;;;;;;4.70;4.30;;;29.10;57.00;;;;;;5008852;28;20445;-46
2023/08/26 10:16:42;;;;;;;5.23;4.23;;;29.10;56.40;;;;;;5015409;28;20441;-48
2023/08/26 10:19:08;;;;;;;8.33;4.30;;;29.20;56.20;;;;;;5010587;28;20441;-46
2023/08/26 10:21:35;;;;;;;7.37;4.40;;;29.30;55.80;;;;;;5010371;28;20496;-47
2023/08/26 10:24:02;;;;;;;4.47;4.07;;;29.30;55.20;;;;;;5009487;28;20483;-46
2023/08/26 10:26:28;;;;;;;5.40;3.63;;;29.40;55.20;;;;;;5003293;28;20465;-50
2023/08/26 10:28:55;;;;;;;5.53;3.50;;;29.50;55.10;;;;;;5011148;28;20464;-48
2023/08/26 10:31:21;;;;;;;4.77;4.27;;;29.60;55.30;;;;;;5003060;28;20207;-48
2023/08/26 10:34:05;;;;;;;5.90;4.10;;;29.50;54.30;;;;;;4999955;28;20448;-47
2023/08/26 10:36:34;;;;;;;6.70;4.10;;;29.50;53.90;;;;;;5004480;28;20222;-48
2023/08/26 10:39:00;;;;;;;4.60;3.63;;;29.40;53.90;;;;;;5008255;28;20437;-46
2023/08/26 10:41:26;;;;;;;9.60;5.23;;;29.40;54.20;;;;;;5010047;28;20492;-50
2023/08/26 10:43:53;;;;;;;5.77;4.03;;;29.40;53.90;;;;;;5009354;28;20653;-46
2023/08/26 10:46:37;;;;;;;4.43;4.00;;;29.30;54.00;;;;;;5009221;28;20480;-50
2023/08/26 10:49:03;;;;;;;6.43;4.27;;;29.30;53.80;;;;;;5007607;28;20444;-48
2023/08/26 10:51:30;;;;;;;5.50;3.87;;;29.20;53.70;;;;;;5005474;28;20467;-53
2023/08/26 10:54:03;;;;;;;5.23;3.60;;;29.20;53.50;;;;;;5006187;28;20498;-48
2023/08/26 10:56:33;;;;;;;5.03;3.53;;;29.20;53.40;;;;;;5007709;28;20440;-49
2023/08/26 10:59:03;;;;;;;5.93;3.77;;;29.30;53.20;;;;;;5010647;28;20524;-47
2023/08/26 11:01:33;;;;;;;4.80;4.30;;;29.30;53.40;;;;;;5010938;28;20952;-48
2023/08/26 11:03:59;;;;;;;4.40;3.97;;;29.20;53.00;;;;;;5012201;28;20862;-46
2023/08/26 11:06:25;;;;;;;4.70;4.30;;;29.20;52.80;;;;;;5007377;28;20433;-50
2023/08/26 11:08:56;;;;;;;6.83;4.00;;;29.10;52.60;;;;;;5007029;28;20459;-46
2023/08/26 11:11:21;;;;;;;6.30;4.33;;;29.00;52.90;;;;;;5005412;28;20198;-46
2023/08/26 11:13:47;;;;;;;4.60;4.17;;;28.90;53.20;;;;;;5014456;28;20853;-46
2023/08/26 11:16:14;;;;;;;4.27;3.63;;;28.90;53.10;;;;;;5018278;28;20185;-46
2023/08/26 11:18:40;;;;;;;5.43;3.50;;;28.90;53.20;;;;;;5015282;28;20198;-46
2023/08/26 11:21:07;;;;;;;4.03;3.63;;;28.90;53.40;;;;;;5010680;28;20513;-48
2023/08/26 11:23:33;;;;;;;6.90;3.53;;;29.00;53.30;;;;;;5014043;28;20928;-52
2023/08/26 11:25:59;;;;;;;4.20;3.80;;;29.00;53.20;;;;;;5013422;28;20451;-50
2023/08/26 11:28:27;;;;;;;5.73;3.83;;;29.10;52.70;;;;;;5009211;28;20233;-49
2023/08/26 11:30:53;;;;;;;3.93;3.40;;;29.10;52.60;;;;;;5008495;28;20202;-47
2023/08/26 11:33:20;;;;;;;4.10;3.23;;;29.20;52.50;;;;;;5014765;28;20478;-48
2023/08/26 11:35:47;;;;;;;5.73;3.47;;;29.20;52.30;;;;;;5012738;28;20502;-47
2023/08/26 11:38:14;;;;;;;4.70;3.70;;;29.20;52.10;;;;;;5013417;28;20448;-49
2023/08/26 11:40:40;;;;;;;5.80;3.07;;;28.90;51.60;;;;;;5008213;28;20999;-45
2023/08/26 11:43:13;;;;;;;5.93;3.83;;;28.90;51.50;;;;;;5009336;28;20437;-46
2023/08/26 11:45:42;;;;;;;4.97;3.67;;;28.80;51.50;;;;;;5016103;28;20982;-47
2023/08/26 11:48:10;;;;;;;8.03;3.87;;;28.80;51.80;;;;;;5013306;28;20495;-48
2023/08/26 11:50:36;;;;;;;3.73;3.40;;;28.80;52.00;;;;;;5014242;28;20952;-44
2023/08/26 11:53:03;;;;;;;8.43;4.30;;;28.80;51.90;;;;;;5009559;28;20535;-49
2023/08/26 11:55:30;;;;;;;3.77;3.40;;;28.80;52.30;;;;;;5011566;28;20248;-47
2023/08/26 11:57:57;;;;;;;5.40;3.83;;;28.70;52.40;;;;;;5015148;28;20444;-51
2023/08/26 12:00:23;;;;;;;6.90;3.70;;;28.60;52.10;;;;;;5014127;28;20599;-49
2023/08/26 12:03:02;;;;;;;3.70;3.27;;;28.70;52.20;;;;;;5013393;28;20459;-47
2023/08/26 12:05:39;;;;;;;6.73;3.43;;;28.70;52.50;;;;;;5011350;28;20444;-49
2023/08/26 12:08:20;;;;;;;6.07;3.43;;;28.70;52.50;;;;;;5012635;28;20440;-50
2023/08/26 12:10:47;;;;;;;3.90;3.33;;;28.70;52.60;;;;;;5012772;28;20523;-50
2023/08/26 12:13:13;;;;;;;5.50;3.27;;;28.80;52.70;;;;;;5013604;28;20468;-49
2023/08/26 12:15:40;;;;;;;5.13;3.47;;;28.70;52.40;;;;;;5012639;28;20531;-48
2023/08/26 12:18:06;;;;;;;2.57;2.40;;;28.70;52.30;;;;;;5014441;28;20564;-51
2023/08/26 12:20:32;;;;;;;4.77;3.13;;;28.70;52.30;;;;;;5012315;28;20500;-47
2023/08/26 12:23:00;;;;;;;4.13;3.83;;;28.70;52.70;;;;;;5011871;28;20602;-48
2023/08/26 12:25:37;;;;;;;3.93;3.47;;;28.70;53.00;;;;;;5008441;28;20759;-49
2023/08/26 12:28:08;;;;;;;2.93;2.73;;;28.70;53.40;;;;;;5010803;28;20825;-52
2023/08/26 12:30:36;;;;;;;4.00;3.37;;;28.70;53.90;;;;;;5011469;28;20432;-47
2023/08/26 12:33:02;;;;;;;4.63;3.40;;;28.70;54.10;;;;;;5008139;28;20819;-47
2023/08/26 12:35:28;;;;;;;4.90;4.10;;;28.60;54.00;;;;;;5013330;28;20445;-48
2023/08/26 12:37:54;;;;;;;4.27;3.23;;;28.50;54.90;;;;;;5012030;28;20429;-49
2023/08/26 12:40:19;;;;;;;4.23;2.63;;;28.20;54.50;;;;;;5014614;28;20483;-48
2023/08/26 12:42:45;;;;;;;3.40;3.00;;;28.10;54.50;;;;;;5012594;28;20193;-50